Time;durP1;ratioP1;P1;durP2;ratioP2;P2;SDS_P1;SDS_P2;PMS_P1;PMS_P2;Temp;Humidity;BMP_temperature;BMP_pressure;BME280_temperature;BME280_humidity;BME280_pressure;Samples;Min_cycle;Max_cycle;Signal;HPM_P1;HPM_P2
2023/04/04 00:00:12;;;;;;;7.83;4.73;;;2.20;99.90;;;;;;5077389;28;20056;-70
2023/04/04 00:02:41;;;;;;;7.83;4.87;;;2.30;99.90;;;;;;5081866;28;20072;-70
2023/04/04 00:05:07;;;;;;;9.50;5.50;;;2.20;99.90;;;;;;5080226;28;20043;-70
2023/04/04 00:07:33;;;;;;;8.60;4.83;;;2.20;99.90;;;;;;5064150;28;20039;-70
2023/04/04 00:10:02;;;;;;;9.03;4.30;;;2.20;99.90;;;;;;5081703;27;20108;-70
2023/04/04 00:12:27;;;;;;;7.93;5.10;;;2.10;99.90;;;;;;5064339;28;20113;-70
2023/04/04 00:14:53;;;;;;;9.53;5.17;;;2.10;99.90;;;;;;5083291;28;20099;-70
2023/04/04 00:17:19;;;;;;;9.30;5.47;;;2.10;99.90;;;;;;5080326;28;20862;-70
2023/04/04 00:19:45;;;;;;;7.63;4.57;;;2.10;99.90;;;;;;5063952;28;20042;-70
2023/04/04 00:22:12;;;;;;;8.70;5.33;;;2.10;99.90;;;;;;5064619;28;20039;-71
2023/04/04 00:24:38;;;;;;;8.63;5.13;;;2.10;99.90;;;;;;5063094;28;20043;-71
2023/04/04 00:27:04;;;;;;;7.83;4.93;;;2.00;99.90;;;;;;5098283;27;20062;-70
2023/04/04 00:29:30;;;;;;;9.60;5.30;;;2.00;99.90;;;;;;5046371;28;20066;-71
2023/04/04 00:31:56;;;;;;;8.67;5.20;;;2.10;99.90;;;;;;5064826;28;20066;-70
2023/04/04 00:34:22;;;;;;;7.40;5.20;;;2.00;99.90;;;;;;5064312;28;20056;-70
2023/04/04 00:36:48;;;;;;;8.00;5.43;;;2.00;99.90;;;;;;5081055;28;20066;-70
2023/04/04 00:39:14;;;;;;;9.13;5.43;;;2.00;99.90;;;;;;5065657;28;20079;-70
2023/04/04 00:41:40;;;;;;;8.53;5.60;;;1.90;99.90;;;;;;5065744;28;20048;-71
2023/04/04 00:44:07;;;;;;;10.40;6.00;;;1.90;99.90;;;;;;5046286;28;20298;-70
2023/04/04 00:46:36;;;;;;;9.00;5.90;;;1.80;99.90;;;;;;5082881;28;20583;-70
2023/04/04 00:49:01;;;;;;;7.90;5.90;;;1.80;99.90;;;;;;5069773;28;20078;-70
2023/04/04 00:51:27;;;;;;;8.83;6.37;;;1.80;99.90;;;;;;5076874;28;20155;-70
2023/04/04 00:53:53;;;;;;;9.10;5.73;;;1.80;99.90;;;;;;5045946;28;20443;-70
2023/04/04 00:56:21;;;;;;;8.70;5.90;;;1.60;99.90;;;;;;5078168;28;20040;-70
2023/04/04 00:58:47;;;;;;;7.47;5.43;;;1.60;99.90;;;;;;5074846;28;20055;-70
2023/04/04 01:01:13;;;;;;;9.37;6.43;;;1.60;99.90;;;;;;5058402;28;20039;-71
2023/04/04 01:03:39;;;;;;;9.37;6.07;;;1.50;99.90;;;;;;5076726;28;20044;-70
2023/04/04 01:06:07;;;;;;;8.50;5.87;;;1.50;99.90;;;;;;5043062;28;20074;-70
2023/04/04 01:08:42;;;;;;;9.40;6.30;;;1.40;99.90;;;;;;5076744;28;20048;-70
2023/04/04 01:11:09;;;;;;;11.90;6.20;;;1.30;99.90;;;;;;5045830;28;20055;-70
2023/04/04 01:13:35;;;;;;;11.27;6.50;;;1.40;99.90;;;;;;5073885;28;20165;-70
2023/04/04 01:16:01;;;;;;;11.90;6.50;;;1.40;99.90;;;;;;5059416;28;20682;-71
2023/04/04 01:18:32;;;;;;;9.23;6.70;;;1.50;99.90;;;;;;5039616;28;20909;-70
2023/04/04 01:21:05;;;;;;;10.83;7.20;;;1.50;99.90;;;;;;5076849;28;20047;-70
2023/04/04 01:23:44;;;;;;;8.13;6.43;;;1.50;99.90;;;;;;5063795;28;20078;-70
2023/04/04 01:26:10;;;;;;;10.97;7.37;;;1.50;99.90;;;;;;5061116;28;20113;-70
2023/04/04 01:28:35;;;;;;;9.67;6.87;;;1.50;99.90;;;;;;5061953;28;20427;-70
2023/04/04 01:31:05;;;;;;;12.47;6.87;;;1.50;99.90;;;;;;5079303;28;20067;-70
2023/04/04 01:33:39;;;;;;;11.60;7.20;;;1.50;99.90;;;;;;5081433;28;20055;-70
2023/04/04 01:36:24;;;;;;;11.63;6.77;;;1.50;99.90;;;;;;5060621;28;20032;-70
2023/04/04 01:39:11;;;;;;;8.63;6.43;;;1.50;99.90;;;;;;5065014;28;20843;-69
2023/04/04 01:41:38;;;;;;;9.47;6.37;;;1.50;99.90;;;;;;5078459;28;20050;-70
2023/04/04 01:44:04;;;;;;;7.80;6.27;;;1.50;99.90;;;;;;5078697;28;20039;-69
2023/04/04 01:46:30;;;;;;;7.90;5.70;;;1.60;99.90;;;;;;5061220;28;20085;-71
2023/04/04 01:48:56;;;;;;;8.63;6.00;;;1.50;99.90;;;;;;5061660;28;20550;-72
2023/04/04 01:51:22;;;;;;;10.57;6.20;;;1.60;99.90;;;;;;5077862;28;20094;-73
2023/04/04 01:53:48;;;;;;;8.50;5.73;;;1.60;99.90;;;;;;5064320;28;20050;-72
2023/04/04 01:56:14;;;;;;;9.27;5.93;;;1.60;99.90;;;;;;5062293;28;20331;-71
2023/04/04 01:58:40;;;;;;;9.23;6.17;;;1.60;99.90;;;;;;5078240;28;20579;-72
2023/04/04 02:01:06;;;;;;;7.03;5.67;;;1.60;99.90;;;;;;5027146;28;20068;-72
2023/04/04 02:03:32;;;;;;;9.37;6.10;;;1.60;99.90;;;;;;5050176;28;20044;-72
2023/04/04 02:05:57;;;;;;;8.43;5.67;;;1.50;99.90;;;;;;5051716;28;20054;-70
2023/04/04 02:08:23;;;;;;;9.00;5.63;;;1.40;99.90;;;;;;5043848;28;21992;-70
2023/04/04 02:10:49;;;;;;;9.77;5.60;;;1.30;99.90;;;;;;5060326;28;20044;-69
2023/04/04 02:13:15;;;;;;;9.00;6.73;;;1.30;99.90;;;;;;5080099;28;20134;-69
2023/04/04 02:15:41;;;;;;;9.87;6.43;;;1.20;99.90;;;;;;5064374;28;20047;-70
2023/04/04 02:18:07;;;;;;;7.80;5.20;;;1.10;99.90;;;;;;5083130;28;20482;-72
2023/04/04 02:20:53;;;;;;;8.70;5.70;;;1.10;99.90;;;;;;5080972;28;20050;-72
2023/04/04 02:23:19;;;;;;;9.97;5.87;;;1.10;99.90;;;;;;5067804;28;20047;-71
2023/04/04 02:25:44;;;;;;;9.17;6.13;;;1.20;99.90;;;;;;5064390;28;20059;-71
2023/04/04 02:28:10;;;;;;;8.27;5.50;;;1.20;99.90;;;;;;5082586;28;20494;-71
2023/04/04 02:30:36;;;;;;;9.50;6.17;;;1.10;99.90;;;;;;5065162;28;20048;-72
2023/04/04 02:33:02;;;;;;;10.13;5.60;;;1.10;99.90;;;;;;5076415;28;20044;-71
2023/04/04 02:35:27;;;;;;;6.57;4.90;;;1.10;99.90;;;;;;5062174;28;20032;-72
2023/04/04 02:37:53;;;;;;;8.43;5.30;;;1.10;99.90;;;;;;5078772;28;20250;-71
2023/04/04 02:40:19;;;;;;;8.30;5.40;;;1.20;99.90;;;;;;5058687;28;20046;-72
2023/04/04 02:42:45;;;;;;;10.57;5.40;;;1.10;99.90;;;;;;5063327;28;20112;-72
2023/04/04 02:45:13;;;;;;;10.70;6.20;;;1.20;99.90;;;;;;5061472;28;20694;-72
2023/04/04 02:47:41;;;;;;;10.10;5.00;;;1.10;99.90;;;;;;5059973;28;20710;-71
2023/04/04 02:50:09;;;;;;;7.70;5.00;;;1.10;99.90;;;;;;5063021;28;21017;-71
2023/04/04 02:52:35;;;;;;;7.93;5.33;;;1.10;99.90;;;;;;5079980;28;20048;-72
2023/04/04 02:55:01;;;;;;;8.87;5.30;;;1.10;99.90;;;;;;5078383;28;20779;-71
2023/04/04 02:57:27;;;;;;;6.77;4.67;;;1.00;99.90;;;;;;5061578;28;20065;-70
2023/04/04 02:59:53;;;;;;;7.03;5.17;;;1.00;99.90;;;;;;5026309;28;20038;-70
2023/04/04 03:02:18;;;;;;;6.83;4.50;;;1.00;99.90;;;;;;5062786;28;20089;-70
2023/04/04 03:04:44;;;;;;;11.97;5.30;;;1.00;99.90;;;;;;5062949;28;20119;-70
2023/04/04 03:07:10;;;;;;;8.07;4.90;;;1.00;99.90;;;;;;5048580;28;20513;-70
2023/04/04 03:09:35;;;;;;;9.10;5.30;;;1.00;99.90;;;;;;5060041;28;20472;-70
2023/04/04 03:12:01;;;;;;;10.30;5.03;;;1.00;99.90;;;;;;5065390;28;20046;-70
2023/04/04 03:14:28;;;;;;;7.93;5.23;;;1.00;99.90;;;;;;5080625;28;20783;-70
2023/04/04 03:16:54;;;;;;;8.17;4.97;;;1.00;99.90;;;;;;5062593;28;20589;-70
2023/04/04 03:19:20;;;;;;;9.00;5.87;;;0.90;99.90;;;;;;5060882;28;20979;-70
2023/04/04 03:21:47;;;;;;;7.17;5.07;;;0.90;99.90;;;;;;5091708;28;20298;-70
2023/04/04 03:24:12;;;;;;;8.07;4.60;;;1.10;99.90;;;;;;5029524;28;20036;-70
2023/04/04 03:26:38;;;;;;;8.60;5.47;;;0.90;99.90;;;;;;5059555;28;20533;-70
2023/04/04 03:29:04;;;;;;;10.03;4.80;;;0.90;99.90;;;;;;5060806;28;20051;-70
2023/04/04 03:31:32;;;;;;;8.57;4.93;;;0.90;99.90;;;;;;5042307;28;20039;-70
2023/04/04 03:33:59;;;;;;;9.70;5.00;;;0.80;99.90;;;;;;5058056;28;20051;-70
2023/04/04 03:36:28;;;;;;;5.68;4.28;;;0.80;99.90;;;;;;5062481;28;20051;-69
2023/04/04 03:38:54;;;;;;;6.73;5.07;;;0.80;99.90;;;;;;5077184;28;20528;-70
2023/04/04 03:41:20;;;;;;;6.97;4.70;;;0.80;99.90;;;;;;5076928;28;20675;-71
2023/04/04 03:43:47;;;;;;;6.83;4.43;;;0.70;99.90;;;;;;5079344;28;20054;-72
2023/04/04 03:46:13;;;;;;;7.10;5.10;;;0.70;99.90;;;;;;5043184;28;20055;-72
2023/04/04 03:48:39;;;;;;;7.63;5.03;;;0.60;99.90;;;;;;5079541;28;20082;-71
2023/04/04 03:51:05;;;;;;;8.73;4.60;;;0.60;99.90;;;;;;5075546;28;20106;-71
2023/04/04 03:53:31;;;;;;;8.10;4.87;;;0.60;99.90;;;;;;5077188;28;20572;-73
2023/04/04 03:55:57;;;;;;;6.07;4.50;;;0.60;99.90;;;;;;5075648;28;20428;-71
2023/04/04 03:58:27;;;;;;;8.00;4.70;;;0.50;99.90;;;;;;5074519;28;20047;-71
2023/04/04 04:00:54;;;;;;;7.93;4.87;;;0.60;99.90;;;;;;5071748;28;20096;-71
2023/04/04 04:03:22;;;;;;;9.13;5.03;;;0.50;99.90;;;;;;5064405;28;20487;-71
2023/04/04 04:05:48;;;;;;;7.53;4.93;;;0.50;99.90;;;;;;5064296;28;20603;-73
2023/04/04 04:08:14;;;;;;;7.60;4.60;;;0.50;99.90;;;;;;5074585;28;20132;-74
2023/04/04 04:10:40;;;;;;;7.70;4.90;;;0.50;99.90;;;;;;5060257;28;20509;-73
2023/04/04 04:13:06;;;;;;;11.10;4.90;;;0.50;99.90;;;;;;5061453;28;20052;-73
2023/04/04 04:15:35;;;;;;;9.63;5.00;;;0.50;99.90;;;;;;5077121;28;20070;-73
2023/04/04 04:18:00;;;;;;;15.33;5.00;;;0.50;99.90;;;;;;5057435;28;20044;-73
2023/04/04 04:20:26;;;;;;;14.30;5.67;;;0.50;99.90;;;;;;5062567;28;20054;-73
2023/04/04 04:22:52;;;;;;;23.63;5.97;;;0.50;99.90;;;;;;5043933;28;20314;-74
2023/04/04 04:25:21;;;;;;;20.50;5.60;;;0.40;99.90;;;;;;5078433;28;20036;-73
2023/04/04 04:27:46;;;;;;;25.87;6.20;;;0.40;99.90;;;;;;5058515;28;20771;-73
2023/04/04 04:30:15;;;;;;;40.63;7.93;;;0.40;99.90;;;;;;5061300;28;20051;-74
2023/04/04 04:32:44;;;;;;;40.67;7.50;;;0.40;99.90;;;;;;5059584;28;20036;-72
2023/04/04 04:35:10;;;;;;;38.73;6.97;;;0.40;99.90;;;;;;5060633;28;20061;-72
2023/04/04 04:37:38;;;;;;;36.23;6.90;;;0.40;99.90;;;;;;5061096;28;20052;-72
2023/04/04 04:40:05;;;;;;;18.13;5.67;;;0.50;99.90;;;;;;5056639;28;20982;-72
2023/04/04 04:42:31;;;;;;;23.50;6.13;;;0.40;99.90;;;;;;5061441;28;20055;-72
2023/04/04 04:45:06;;;;;;;19.77;5.27;;;0.40;99.90;;;;;;5078576;28;20063;-72
2023/04/04 04:47:32;;;;;;;16.20;5.23;;;0.40;99.90;;;;;;5075134;28;20047;-72
2023/04/04 04:50:01;;;;;;;13.27;4.80;;;0.40;99.90;;;;;;5076158;28;20070;-72
2023/04/04 04:52:30;;;;;;;11.47;5.10;;;0.40;99.90;;;;;;5078248;28;20051;-72
2023/04/04 04:54:56;;;;;;;12.77;5.10;;;0.40;99.90;;;;;;5046386;28;20074;-72
2023/04/04 04:57:22;;;;;;;9.47;5.30;;;0.30;99.90;;;;;;5058799;28;20047;-72
2023/04/04 04:59:51;;;;;;;6.80;4.80;;;0.30;99.90;;;;;;5057676;28;20073;-72
2023/04/04 05:02:16;;;;;;;9.57;5.33;;;0.20;99.90;;;;;;5063770;28;20043;-72
2023/04/04 05:04:44;;;;;;;8.63;6.13;;;0.30;99.90;;;;;;5076601;28;20044;-72
2023/04/04 05:07:11;;;;;;;9.17;5.50;;;0.20;99.90;;;;;;5063380;28;20073;-72
2023/04/04 05:09:37;;;;;;;11.70;6.57;;;0.20;99.90;;;;;;5062406;28;20047;-72
2023/04/04 05:12:03;;;;;;;11.50;6.13;;;0.10;99.90;;;;;;5078904;28;20132;-72
2023/04/04 05:14:32;;;;;;;9.57;5.97;;;0.10;99.90;;;;;;5080601;28;20040;-73
2023/04/04 05:17:00;;;;;;;10.50;6.23;;;0.10;99.90;;;;;;5045747;28;20059;-73
2023/04/04 05:19:26;;;;;;;9.80;6.73;;;0.00;99.90;;;;;;5044215;28;20048;-73
2023/04/04 05:21:53;;;;;;;10.57;6.20;;;0.00;99.90;;;;;;5074304;28;20081;-73
2023/04/04 05:24:19;;;;;;;8.83;6.27;;;0.00;99.90;;;;;;5062393;28;21956;-72
2023/04/04 05:26:45;;;;;;;9.07;6.20;;;0.00;99.90;;;;;;5076244;28;20063;-72
2023/04/04 05:29:11;;;;;;;11.90;6.10;;;0.00;99.90;;;;;;5061529;28;20757;-72
2023/04/04 05:31:37;;;;;;;8.73;6.37;;;0.10;99.90;;;;;;5062015;28;20055;-72
2023/04/04 05:34:07;;;;;;;8.70;5.87;;;0.10;99.90;;;;;;5079176;28;20066;-72
2023/04/04 05:36:36;;;;;;;11.05;6.00;;;0.20;99.90;;;;;;5064205;28;20073;-72
2023/04/04 05:39:07;;;;;;;10.20;6.30;;;0.30;99.90;;;;;;5081547;28;20050;-72
2023/04/04 05:41:55;;;;;;;10.27;5.90;;;0.30;99.90;;;;;;5076761;28;20748;-73
2023/04/04 05:44:21;;;;;;;9.80;5.83;;;0.50;99.90;;;;;;5069826;28;20131;-72
2023/04/04 05:46:46;;;;;;;7.73;5.63;;;0.60;99.90;;;;;;5077904;28;20176;-73
2023/04/04 05:49:12;;;;;;;9.73;6.13;;;0.70;99.90;;;;;;5081995;28;20044;-73
2023/04/04 05:51:38;;;;;;;7.67;5.90;;;0.60;99.90;;;;;;5064436;28;20529;-73
2023/04/04 05:54:06;;;;;;;10.57;6.53;;;0.70;99.90;;;;;;5079316;28;20047;-72
2023/04/04 05:56:35;;;;;;;8.43;5.77;;;0.70;99.90;;;;;;5065362;28;20944;-73
2023/04/04 05:59:03;;;;;;;10.83;7.00;;;0.70;99.90;;;;;;5066992;28;20031;-73
2023/04/04 06:01:33;;;;;;;10.63;6.13;;;0.80;99.90;;;;;;5081856;28;20048;-72
2023/04/04 06:03:59;;;;;;;8.43;5.40;;;0.80;99.90;;;;;;5067891;28;20200;-73
2023/04/04 06:06:26;;;;;;;11.63;6.10;;;0.80;99.90;;;;;;5052073;28;20126;-72
2023/04/04 06:08:52;;;;;;;8.40;5.50;;;0.90;99.90;;;;;;5066601;28;20077;-73
2023/04/04 06:11:18;;;;;;;10.33;5.60;;;0.90;99.90;;;;;;5083274;28;20032;-73
2023/04/04 06:13:43;;;;;;;10.13;6.17;;;1.00;99.90;;;;;;5082952;28;20040;-72
2023/04/04 06:16:12;;;;;;;9.93;6.63;;;0.90;99.90;;;;;;5068293;28;20143;-73
2023/04/04 06:18:41;;;;;;;9.40;6.37;;;0.90;99.90;;;;;;5068828;28;20052;-72
2023/04/04 06:21:07;;;;;;;9.07;5.90;;;0.90;99.90;;;;;;5065264;28;20075;-73
2023/04/04 06:23:33;;;;;;;9.33;6.20;;;0.90;99.90;;;;;;5082984;28;20547;-73
2023/04/04 06:25:58;;;;;;;8.23;5.70;;;0.90;99.90;;;;;;5066857;28;20135;-71
2023/04/04 06:28:24;;;;;;;9.53;5.87;;;0.90;99.90;;;;;;5066631;28;20177;-70
2023/04/04 06:30:50;;;;;;;9.63;5.70;;;0.90;99.90;;;;;;5051167;28;20059;-70
2023/04/04 06:33:16;;;;;;;7.70;5.57;;;1.10;99.90;;;;;;5065821;28;21634;-71
2023/04/04 06:35:43;;;;;;;8.27;5.30;;;1.00;99.90;;;;;;5083804;28;20048;-71
2023/04/04 06:38:09;;;;;;;10.67;5.27;;;1.10;99.90;;;;;;5058165;28;20323;-70
2023/04/04 06:40:35;;;;;;;9.20;5.57;;;1.10;99.90;;;;;;5047875;28;20410;-72
2023/04/04 06:43:01;;;;;;;7.50;5.47;;;1.20;99.90;;;;;;5038877;28;20047;-73
2023/04/04 06:45:27;;;;;;;7.77;5.23;;;1.30;99.90;;;;;;5032067;28;20685;-73
2023/04/04 06:47:56;;;;;;;8.03;5.17;;;1.30;99.90;;;;;;5083418;28;20477;-73
2023/04/04 06:50:24;;;;;;;11.00;4.70;;;1.40;99.90;;;;;;5067013;28;20051;-72
2023/04/04 06:52:51;;;;;;;8.30;4.77;;;1.50;99.90;;;;;;5063904;28;20140;-72
2023/04/04 06:55:17;;;;;;;7.10;4.27;;;1.60;99.90;;;;;;5066616;28;20503;-72
2023/04/04 06:57:43;;;;;;;10.90;4.07;;;1.70;99.90;;;;;;5063695;28;20242;-72
2023/04/04 07:00:10;;;;;;;6.63;4.20;;;1.80;99.90;;;;;;5083692;28;20057;-73
2023/04/04 07:02:36;;;;;;;6.83;3.63;;;1.90;99.90;;;;;;5060672;28;20139;-73
2023/04/04 07:05:03;;;;;;;8.57;4.50;;;2.00;99.90;;;;;;5063087;28;20564;-74
2023/04/04 07:07:29;;;;;;;7.83;3.87;;;2.20;99.90;;;;;;5079254;28;20066;-74
2023/04/04 07:09:58;;;;;;;6.27;3.53;;;2.30;99.90;;;;;;5058585;28;20499;-74
2023/04/04 07:12:23;;;;;;;7.50;3.87;;;2.60;99.90;;;;;;5062589;28;20040;-72
2023/04/04 07:14:49;;;;;;;7.20;3.37;;;2.60;99.90;;;;;;5060032;28;20213;-74
2023/04/04 07:17:15;;;;;;;5.27;2.90;;;2.70;99.90;;;;;;5063013;28;20040;-72
2023/04/04 07:19:41;;;;;;;7.83;3.33;;;2.90;99.90;;;;;;5061659;28;20514;-74
2023/04/04 07:22:06;;;;;;;9.77;3.53;;;3.00;99.90;;;;;;5064241;28;20413;-72
2023/04/04 07:24:32;;;;;;;7.28;3.25;;;3.20;99.90;;;;;;5063024;28;20378;-72
2023/04/04 07:26:58;;;;;;;5.03;2.83;;;3.20;99.90;;;;;;5058799;28;20044;-73
2023/04/04 07:29:24;;;;;;;10.68;3.53;;;3.30;99.90;;;;;;5059453;28;20047;-73
2023/04/04 07:31:50;;;;;;;6.75;3.15;;;3.50;99.90;;;;;;5071388;28;20209;-73
2023/04/04 07:34:16;;;;;;;5.73;3.20;;;3.60;99.90;;;;;;5063219;28;20054;-72
2023/04/04 07:36:45;;;;;;;7.00;3.08;;;3.70;99.90;;;;;;5077963;28;20478;-74
2023/04/04 07:39:17;;;;;;;6.28;3.17;;;3.80;99.90;;;;;;5043665;28;20084;-74
2023/04/04 07:41:43;;;;;;;7.43;3.67;;;3.90;99.90;;;;;;5077752;28;20080;-74
2023/04/04 07:44:09;;;;;;;5.50;3.03;;;4.10;99.90;;;;;;5042977;28;20043;-74
2023/04/04 07:46:34;;;;;;;6.10;2.97;;;4.20;99.90;;;;;;5077070;28;20182;-71
2023/04/04 07:49:01;;;;;;;8.10;2.95;;;4.30;99.90;;;;;;5076423;28;20794;-73
2023/04/04 07:51:28;;;;;;;4.45;2.50;;;4.50;99.90;;;;;;5076968;28;20134;-73
2023/04/04 07:53:55;;;;;;;5.07;2.50;;;4.50;97.90;;;;;;5060465;28;20212;-73
2023/04/04 07:56:21;;;;;;;5.03;2.90;;;4.60;98.40;;;;;;5056432;28;20047;-73
2023/04/04 07:58:47;;;;;;;7.07;3.00;;;4.80;98.00;;;;;;5078553;28;20470;-71
2023/04/04 08:01:13;;;;;;;6.28;3.42;;;4.90;97.60;;;;;;5057595;28;20041;-73
2023/04/04 08:03:39;;;;;;;6.80;3.03;;;5.00;97.50;;;;;;5060033;28;20311;-72
2023/04/04 08:06:05;;;;;;;5.97;2.63;;;5.10;96.60;;;;;;5040946;28;20039;-73
2023/04/04 08:08:31;;;;;;;6.00;2.55;;;5.30;97.30;;;;;;5060567;28;20048;-72
2023/04/04 08:10:57;;;;;;;4.10;2.60;;;5.50;96.10;;;;;;5057583;28;20272;-72
2023/04/04 08:13:22;;;;;;;6.93;2.92;;;5.60;94.50;;;;;;5073787;28;20089;-72
2023/04/04 08:15:48;;;;;;;7.97;3.25;;;5.70;93.60;;;;;;5074548;28;20716;-72
2023/04/04 08:18:14;;;;;;;5.03;2.63;;;5.90;93.50;;;;;;5045243;28;20057;-71
2023/04/04 08:20:40;;;;;;;5.00;2.40;;;6.00;93.20;;;;;;5055049;28;20130;-72
2023/04/04 08:23:06;;;;;;;5.45;2.42;;;6.00;92.60;;;;;;5063788;28;20070;-72
2023/04/04 08:25:33;;;;;;;4.90;2.30;;;6.10;92.50;;;;;;5079364;28;20131;-72
2023/04/04 08:28:05;;;;;;;4.50;2.13;;;6.30;91.70;;;;;;5063233;28;20522;-73
2023/04/04 08:30:31;;;;;;;6.28;2.20;;;6.40;89.70;;;;;;5061799;28;20225;-73
2023/04/04 08:32:57;;;;;;;4.63;1.92;;;6.50;88.80;;;;;;5078912;28;20594;-73
2023/04/04 08:35:23;;;;;;;6.22;2.53;;;6.60;87.50;;;;;;5065806;28;20526;-73
2023/04/04 08:37:49;;;;;;;7.43;2.03;;;6.70;86.40;;;;;;5066392;28;20494;-73
2023/04/04 08:40:15;;;;;;;5.82;2.03;;;6.80;85.90;;;;;;5066209;28;20130;-73
2023/04/04 08:42:44;;;;;;;7.13;5.63;;;6.90;85.60;;;;;;5076231;28;20136;-73
2023/04/04 08:45:11;;;;;;;4.13;2.03;;;6.90;84.00;;;;;;5080326;28;20040;-72
2023/04/04 08:47:38;;;;;;;4.85;2.03;;;6.90;82.30;;;;;;5065507;28;20043;-72
2023/04/04 08:50:06;;;;;;;5.40;2.13;;;6.80;81.90;;;;;;5082818;28;20054;-72
2023/04/04 08:52:35;;;;;;;4.97;2.10;;;6.80;81.90;;;;;;5079705;28;20112;-72
2023/04/04 08:55:05;;;;;;;6.07;2.17;;;6.80;82.40;;;;;;5081507;28;20437;-71
2023/04/04 08:57:32;;;;;;;5.85;2.10;;;6.80;81.70;;;;;;5062765;28;20117;-72
2023/04/04 08:59:58;;;;;;;6.38;2.53;;;6.80;81.20;;;;;;5079069;27;20055;-72
2023/04/04 09:02:36;;;;;;;4.35;1.85;;;6.80;81.10;;;;;;5066062;28;20498;-73
2023/04/04 09:05:02;;;;;;;10.07;2.47;;;6.80;81.60;;;;;;5066079;28;20054;-73
2023/04/04 09:07:29;;;;;;;3.78;1.77;;;6.80;78.90;;;;;;5081933;28;20047;-72
2023/04/04 09:09:56;;;;;;;5.80;1.98;;;6.90;78.70;;;;;;5060044;28;20058;-72
2023/04/04 09:12:23;;;;;;;4.90;2.22;;;7.00;78.40;;;;;;5064548;28;20499;-72
2023/04/04 09:14:51;;;;;;;6.18;2.17;;;7.10;77.60;;;;;;5065438;28;20153;-72
2023/04/04 09:17:18;;;;;;;5.05;2.20;;;7.10;75.00;;;;;;5062012;28;20141;-72
2023/04/04 09:19:44;;;;;;;6.10;2.58;;;7.00;74.90;;;;;;5081317;28;20044;-72
2023/04/04 09:22:10;;;;;;;6.20;2.47;;;7.00;75.20;;;;;;5065732;28;20346;-73
2023/04/04 09:24:40;;;;;;;5.65;2.50;;;7.00;75.80;;;;;;5063726;28;20475;-72
2023/04/04 09:27:11;;;;;;;8.20;2.78;;;7.10;76.10;;;;;;5097221;27;20116;-72
2023/04/04 09:29:38;;;;;;;5.93;2.13;;;7.30;76.70;;;;;;5080023;28;20722;-73
2023/04/04 09:32:07;;;;;;;6.97;2.60;;;7.40;76.90;;;;;;5081022;28;20043;-72
2023/04/04 09:34:34;;;;;;;4.53;1.98;;;7.60;75.30;;;;;;5079600;28;20828;-72
2023/04/04 09:37:02;;;;;;;5.70;1.95;;;7.70;75.30;;;;;;5062086;28;20122;-72
2023/04/04 09:39:27;;;;;;;4.95;2.70;;;7.70;74.60;;;;;;5095801;27;20689;-72
2023/04/04 09:41:53;;;;;;;5.53;2.17;;;7.90;76.00;;;;;;5080281;28;21095;-72
2023/04/04 09:44:23;;;;;;;5.57;2.35;;;8.00;74.90;;;;;;5062205;28;20158;-72
2023/04/04 09:46:52;;;;;;;6.60;2.92;;;8.10;76.30;;;;;;5078727;28;20215;-73
2023/04/04 09:49:22;;;;;;;5.25;2.30;;;8.20;75.10;;;;;;5065686;28;20062;-72
2023/04/04 09:51:51;;;;;;;;;;;8.20;75.10;;;;;;5079574;28;20540;-73
2023/04/04 09:54:23;;;;;;;5.45;2.40;;;8.20;71.60;;;;;;5080157;28;19938;-72
2023/04/04 09:56:50;;;;;;;7.57;2.20;;;8.30;73.70;;;;;;5063275;28;20040;-72
2023/04/04 09:59:17;;;;;;;4.18;2.42;;;8.40;73.00;;;;;;5080119;28;20117;-72
2023/04/04 10:01:44;;;;;;;6.20;2.50;;;8.50;73.10;;;;;;5081443;28;20048;-73
2023/04/04 10:04:10;;;;;;;7.20;2.60;;;8.60;73.50;;;;;;5063939;28;20048;-73
2023/04/04 10:06:37;;;;;;;4.53;2.00;;;8.70;72.10;;;;;;5061412;28;21245;-73
2023/04/04 10:09:04;;;;;;;6.40;2.38;;;8.60;69.50;;;;;;5077771;28;20100;-73
2023/04/04 10:11:34;;;;;;;4.78;2.38;;;8.60;68.60;;;;;;5063560;28;20205;-72
2023/04/04 10:14:02;;;;;;;;;;;8.70;69.20;;;;;;5075561;28;20251;-73
2023/04/04 10:16:35;;;;;;;5.10;2.60;;;8.60;65.40;;;;;;5081414;28;19919;-73
2023/04/04 10:19:04;;;;;;;5.40;2.53;;;8.60;68.50;;;;;;5091343;27;20431;-72
2023/04/04 10:21:36;;;;;;;5.25;2.55;;;8.70;68.40;;;;;;5064554;28;20157;-73
2023/04/04 10:24:07;;;;;;;6.25;3.15;;;8.80;68.40;;;;;;5060322;28;20044;-74
2023/04/04 10:26:33;;;;;;;6.03;2.58;;;8.80;70.00;;;;;;5094446;27;20048;-73
2023/04/04 10:29:02;;;;;;;6.38;2.90;;;8.80;69.50;;;;;;5063791;28;20563;-72
2023/04/04 10:31:32;;;;;;;5.50;2.72;;;8.80;68.20;;;;;;5059982;28;20040;-72
2023/04/04 10:34:20;;;;;;;;;;;8.90;70.00;;;;;;5082092;28;20251;-72
2023/04/04 10:36:52;;;;;;;5.65;2.80;;;8.90;70.60;;;;;;5078074;28;19942;-73
2023/04/04 10:39:50;;;;;;;5.22;2.90;;;9.00;68.70;;;;;;5075633;28;20056;-72
2023/04/04 10:42:18;;;;;;;7.32;2.97;;;8.90;66.40;;;;;;5084820;27;20052;-72
2023/04/04 10:44:46;;;;;;;7.15;2.80;;;8.80;66.10;;;;;;5073669;28;20054;-73
2023/04/04 10:47:22;;;;;;;5.00;2.70;;;8.90;66.60;;;;;;5075966;28;20056;-72
2023/04/04 10:49:52;;;;;;;6.38;2.78;;;9.00;68.80;;;;;;5075055;28;20402;-72
2023/04/04 10:52:26;;;;;;;5.13;2.70;;;9.00;68.40;;;;;;5089284;27;20619;-73
2023/04/04 10:54:54;;;;;;;5.88;2.83;;;9.10;66.80;;;;;;5075297;28;20452;-73
2023/04/04 10:57:20;;;;;;;5.35;3.08;;;9.20;66.40;;;;;;5061312;28;20040;-73
2023/04/04 11:00:04;;;;;;;6.15;3.10;;;9.30;66.80;;;;;;5063227;28;20050;-73
2023/04/04 11:02:58;;;;;;;6.80;2.78;;;9.30;64.10;;;;;;5076777;28;20505;-73
2023/04/04 11:05:33;;;;;;;5.00;2.75;;;9.20;64.60;;;;;;5075099;28;20078;-73
2023/04/04 11:08:09;;;;;;;5.45;2.65;;;9.20;65.10;;;;;;5073044;28;20052;-72
2023/04/04 11:10:41;;;;;;;5.90;2.63;;;9.30;66.50;;;;;;5075106;28;20051;-74
2023/04/04 11:13:21;;;;;;;7.25;3.10;;;9.60;64.60;;;;;;5078247;28;20322;-72
2023/04/04 11:15:58;;;;;;;9.43;4.00;;;9.50;63.00;;;;;;5094433;27;20450;-71
2023/04/04 11:18:47;;;;;;;7.32;3.28;;;9.40;65.20;;;;;;5075032;28;20044;-72
2023/04/04 11:21:13;;;;;;;7.50;3.25;;;9.50;65.70;;;;;;5071183;28;20489;-71
2023/04/04 11:23:48;;;;;;;4.90;2.63;;;9.60;64.30;;;;;;5079541;28;20045;-72
2023/04/04 11:26:26;;;;;;;5.20;2.78;;;9.60;62.60;;;;;;5056949;28;20817;-72
2023/04/04 11:28:59;;;;;;;6.07;2.75;;;9.60;61.70;;;;;;5078360;28;20054;-74
2023/04/04 11:31:46;;;;;;;6.10;3.20;;;9.60;62.00;;;;;;5045412;28;20059;-72
2023/04/04 11:34:33;;;;;;;5.70;3.08;;;9.60;60.60;;;;;;5076382;28;20051;-73
2023/04/04 11:37:15;;;;;;;6.38;3.20;;;9.60;61.00;;;;;;5076970;28;20054;-72
2023/04/04 11:39:56;;;;;;;6.70;3.20;;;9.70;59.60;;;;;;5078084;28;20132;-72
2023/04/04 11:42:22;;;;;;;5.78;3.00;;;9.80;60.90;;;;;;5079579;28;20050;-72
2023/04/04 11:44:51;;;;;;;8.32;3.42;;;9.90;61.40;;;;;;5055595;28;20071;-73
2023/04/04 11:47:24;;;;;;;7.50;3.28;;;9.90;60.80;;;;;;5058362;28;20060;-73
2023/04/04 11:49:52;;;;;;;6.45;3.20;;;9.90;60.40;;;;;;5076830;28;20301;-72
2023/04/04 11:52:18;;;;;;;7.68;3.45;;;9.90;61.40;;;;;;5077948;28;20055;-72
2023/04/04 11:54:46;;;;;;;7.15;3.22;;;10.00;60.80;;;;;;5077247;28;20040;-72
2023/04/04 11:57:13;;;;;;;6.22;2.95;;;10.10;58.50;;;;;;5079192;28;20067;-72
2023/04/04 11:59:47;;;;;;;5.65;2.72;;;10.10;57.60;;;;;;5063859;28;20066;-73
2023/04/04 12:02:30;;;;;;;7.10;3.25;;;10.00;57.40;;;;;;5080657;28;20141;-73
2023/04/04 12:04:56;;;;;;;6.00;2.70;;;10.00;58.40;;;;;;5065792;28;20040;-73
2023/04/04 12:07:23;;;;;;;5.45;2.83;;;9.80;59.30;;;;;;5064323;28;21334;-73
2023/04/04 12:09:49;;;;;;;6.75;2.72;;;9.90;59.10;;;;;;5064250;28;20397;-72
2023/04/04 12:12:15;;;;;;;5.68;2.70;;;10.00;60.40;;;;;;5066330;28;20051;-72
2023/04/04 12:14:42;;;;;;;4.90;2.80;;;10.00;59.10;;;;;;5063500;28;20634;-72
2023/04/04 12:17:08;;;;;;;5.13;2.80;;;9.90;57.80;;;;;;5065071;28;20036;-73
2023/04/04 12:19:39;;;;;;;6.82;3.40;;;9.80;58.40;;;;;;5065319;28;20452;-73
2023/04/04 12:22:06;;;;;;;5.40;2.80;;;9.80;58.00;;;;;;5079602;28;20972;-73
2023/04/04 12:24:33;;;;;;;8.73;3.17;;;9.70;58.70;;;;;;5081577;28;20044;-73
2023/04/04 12:26:59;;;;;;;6.45;3.10;;;9.80;58.10;;;;;;5076652;28;20132;-74
2023/04/04 12:29:35;;;;;;;4.93;3.00;;;9.90;56.80;;;;;;5081112;28;20051;-73
2023/04/04 12:32:02;;;;;;;5.93;2.95;;;9.90;56.00;;;;;;5044593;28;20055;-73
2023/04/04 12:34:30;;;;;;;6.38;2.63;;;9.90;57.50;;;;;;5045022;28;20044;-73
2023/04/04 12:36:57;;;;;;;7.53;3.15;;;10.00;57.50;;;;;;5060956;28;20056;-73
2023/04/04 12:39:27;;;;;;;6.28;3.15;;;10.00;57.00;;;;;;5078944;28;20631;-75
2023/04/04 12:41:58;;;;;;;5.45;3.10;;;10.20;58.90;;;;;;5064496;28;20509;-73
2023/04/04 12:44:39;;;;;;;5.35;2.75;;;10.10;57.80;;;;;;5079372;28;20040;-73
2023/04/04 12:47:10;;;;;;;5.38;2.90;;;10.30;56.60;;;;;;5065574;28;20414;-73
2023/04/04 12:49:47;;;;;;;5.57;2.78;;;10.40;57.10;;;;;;5074995;28;20040;-72
2023/04/04 12:52:21;;;;;;;6.78;3.35;;;10.50;56.60;;;;;;5079256;28;20131;-73
2023/04/04 12:54:50;;;;;;;6.80;2.80;;;10.50;56.80;;;;;;5078569;28;20052;-72
2023/04/04 12:57:24;;;;;;;4.97;2.80;;;10.50;56.30;;;;;;5078224;28;20048;-73
2023/04/04 12:59:54;;;;;;;7.47;3.17;;;10.60;57.00;;;;;;5059065;28;20050;-72